Time;durP1;ratioP1;P1;durP2;ratioP2;P2;SDS_P1;SDS_P2;PMS_P1;PMS_P2;Temp;Humidity;BMP_temperature;BMP_pressure;BME280_temperature;BME280_humidity;BME280_pressure;Samples;Min_cycle;Max_cycle;Signal;HPM_P1;HPM_P2
2023/01/01 00:00:11;;;;;;;203.27;111.45;;;;;;;0.79;100.00;102535.63;5035887;28;20440;-81
2023/01/01 00:02:38;;;;;;;187.38;106.15;;;;;;;0.79;100.00;102536.47;5034148;28;20049;-79
2023/01/01 00:05:06;;;;;;;186.70;109.32;;;;;;;0.86;100.00;102531.66;5031055;28;20049;-82
2023/01/01 00:07:33;;;;;;;171.32;106.35;;;;;;;0.91;100.00;102534.84;5028404;28;20045;-80
2023/01/01 00:12:46;;;;;;;155.20;93.50;;;;;;;0.83;100.00;102521.41;5035195;28;20052;-80
2023/01/01 00:15:12;;;;;;;137.80;93.45;;;;;;;0.69;100.00;102525.72;5032180;28;20056;-78
2023/01/01 00:17:39;;;;;;;142.75;88.13;;;;;;;0.71;100.00;102528.25;5035157;28;20042;-79
2023/01/01 00:20:07;;;;;;;138.35;87.32;;;;;;;0.65;100.00;102521.63;5037025;28;20694;-79
2023/01/01 00:22:34;;;;;;;111.95;78.05;;;;;;;0.75;100.00;102524.50;5033446;28;20064;-79
2023/01/01 00:25:02;;;;;;;101.18;71.97;;;;;;;0.84;100.00;102517.84;5026828;28;20106;-80
2023/01/01 00:27:28;;;;;;;90.78;66.00;;;;;;;0.80;100.00;102525.03;5036730;28;20050;-79
2023/01/01 00:29:55;;;;;;;86.93;68.75;;;;;;;1.02;100.00;102524.50;5034840;28;20775;-84
2023/01/01 00:32:22;;;;;;;93.65;71.47;;;;;;;0.86;100.00;102518.59;5030011;28;20045;-79
2023/01/01 00:34:49;;;;;;;95.32;70.82;;;;;;;0.84;100.00;102525.69;5034876;28;20049;-79
2023/01/01 00:37:17;;;;;;;86.38;65.10;;;;;;;1.06;100.00;102520.75;5034442;28;20056;-79
2023/01/01 00:39:43;;;;;;;75.32;63.20;;;;;;;1.25;100.00;102527.41;5031880;28;20486;-79
2023/01/01 00:42:12;;;;;;;80.38;63.97;;;;;;;1.10;100.00;102534.47;5037617;28;20477;-83
2023/01/01 00:44:38;;;;;;;77.05;65.63;;;;;;;1.13;100.00;102535.13;5037819;28;20052;-79
2023/01/01 00:47:05;;;;;;;73.47;62.67;;;;;;;0.96;100.00;102543.22;5033026;28;20491;-79
2023/01/01 00:49:32;;;;;;;76.90;62.45;;;;;;;0.97;100.00;102549.28;5032372;28;20060;-80
2023/01/01 00:51:59;;;;;;;78.03;64.05;;;;;;;0.78;100.00;102552.22;5036609;28;20136;-79
2023/01/01 00:54:26;;;;;;;73.78;63.08;;;;;;;0.86;100.00;102553.44;5026659;28;20053;-80
2023/01/01 00:56:53;;;;;;;71.63;60.65;;;;;;;0.88;100.00;102546.34;5030130;28;20054;-79
2023/01/01 00:59:21;;;;;;;72.75;60.70;;;;;;;0.64;100.00;102550.50;5033502;28;20053;-79
2023/01/01 01:13:08;;;;;;;72.53;60.67;;;;;;;0.57;100.00;102531.72;5148828;27;20436;-81
2023/01/01 01:15:35;;;;;;;69.95;62.45;;;;;;;0.57;100.00;102529.09;5136306;27;20059;-79
2023/01/01 01:18:02;;;;;;;75.30;65.07;;;;;;;0.67;100.00;102539.84;5129918;27;20053;-80
2023/01/01 01:20:28;;;;;;;70.93;62.88;;;;;;;0.62;100.00;102536.69;5134443;27;20047;-79
2023/01/01 01:22:55;;;;;;;70.18;60.35;;;;;;;1.28;100.00;102533.28;5139434;27;20104;-79
2023/01/01 01:25:22;;;;;;;76.30;62.47;;;;;;;1.35;100.00;102531.09;5136906;27;20039;-81
2023/01/01 01:27:49;;;;;;;74.43;64.78;;;;;;;1.57;100.00;102538.34;5133009;27;20423;-79
2023/01/01 01:30:17;;;;;;;89.40;68.10;;;;;;;1.68;100.00;102532.41;5134186;27;20047;-79
2023/01/01 01:32:44;;;;;;;79.88;66.43;;;;;;;1.81;100.00;102535.84;5133090;27;20039;-81
2023/01/01 01:35:11;;;;;;;75.72;64.88;;;;;;;1.94;100.00;102547.19;5132431;27;20044;-78
2023/01/01 01:37:38;;;;;;;74.82;66.50;;;;;;;1.69;100.00;102542.75;5136508;27;20061;-79
2023/01/01 01:40:06;;;;;;;75.95;67.72;;;;;;;1.36;100.00;102536.25;5133293;27;20047;-79
2023/01/01 01:42:32;;;;;;;73.68;64.85;;;;;;;1.16;100.00;102533.25;5128835;27;20112;-82
2023/01/01 01:45:01;;;;;;;71.85;60.75;;;;;;;1.65;100.00;102530.00;5128123;27;20456;-78
2023/01/01 01:47:33;;;;;;;68.78;60.97;;;;;;;1.24;100.00;102530.94;5127245;27;20044;-81
2023/01/01 01:50:06;;;;;;;67.72;58.20;;;;;;;1.38;100.00;102536.13;5137767;27;20527;-79
2023/01/01 01:52:36;;;;;;;76.10;64.18;;;;;;;1.03;100.00;102530.56;5137056;27;20417;-81
2023/01/01 01:55:05;;;;;;;83.85;70.95;;;;;;;0.83;100.00;102519.63;5132341;27;20043;-79
2023/01/01 01:57:33;;;;;;;83.30;69.00;;;;;;;0.74;100.00;102529.84;5132231;27;20047;-79
2023/01/01 02:00:02;;;;;;;80.78;69.35;;;;;;;0.52;100.00;102525.13;5123670;27;20047;-80
2023/01/01 02:02:36;;;;;;;73.18;65.20;;;;;;;0.61;100.00;102521.94;5123695;27;20105;-80
2023/01/01 02:05:04;;;;;;;76.53;68.32;;;;;;;0.81;100.00;102526.72;5114897;28;20055;-80
2023/01/01 02:07:34;;;;;;;70.70;62.00;;;;;;;1.02;100.00;102528.91;5123706;28;20051;-79
2023/01/01 02:10:01;;;;;;;305.63;128.35;;;;;;;1.17;100.00;102538.38;5126172;28;20047;-82
2023/01/01 02:12:28;;;;;;;188.80;101.15;;;;;;;1.01;100.00;102524.59;5111420;28;20052;-80
2023/01/01 02:14:55;;;;;;;142.23;85.07;;;;;;;1.24;100.00;102528.31;5107433;28;20047;-79
2023/01/01 02:17:27;;;;;;;116.22;77.35;;;;;;;1.46;100.00;102527.78;5111317;28;20040;-81
2023/01/01 02:20:16;;;;;;;102.85;74.72;;;;;;;1.93;100.00;102528.94;5105771;28;20119;-80
2023/01/01 02:23:08;;;;;;;105.93;72.68;;;;;;;1.57;100.00;102528.72;5104321;28;20044;-82
2023/01/01 02:25:46;;;;;;;105.95;75.00;;;;;;;1.52;100.00;102529.97;5101193;28;20477;-78
2023/01/01 02:28:24;;;;;;;101.22;74.65;;;;;;;1.45;100.00;102526.06;5106055;28;20455;-79
2023/01/01 02:30:54;;;;;;;96.75;67.53;;;;;;;1.71;100.00;102527.78;5102476;28;20125;-78
2023/01/01 02:33:25;;;;;;;96.95;69.97;;;;;;;1.67;100.00;102534.19;5103744;28;20044;-78
2023/01/01 02:35:57;;;;;;;87.95;68.57;;;;;;;1.54;100.00;102528.94;5106337;28;20081;-80
2023/01/01 02:38:30;;;;;;;93.35;69.50;;;;;;;0.94;100.00;102528.53;5100792;28;20055;-82
2023/01/01 02:41:00;;;;;;;83.25;66.32;;;;;;;0.91;100.00;102527.00;5100154;28;20101;-79
2023/01/01 02:43:27;;;;;;;91.97;68.53;;;;;;;0.64;100.00;102527.81;5105378;28;20043;-81
2023/01/01 02:45:56;;;;;;;90.72;71.05;;;;;;;0.87;100.00;102526.31;5103411;28;20048;-79
2023/01/01 02:48:39;;;;;;;99.35;72.30;;;;;;;0.54;100.00;102513.59;5108865;28;20112;-80
2023/01/01 02:51:14;;;;;;;84.05;65.95;;;;;;;0.60;100.00;102517.63;5109507;28;20044;-79
2023/01/01 02:53:48;;;;;;;79.93;65.15;;;;;;;0.43;100.00;102500.38;5098418;28;20051;-78
2023/01/01 02:56:24;;;;;;;82.22;65.28;;;;;;;0.78;100.00;102513.00;5102058;28;20468;-80
2023/01/01 03:01:49;;;;;;;77.78;69.25;;;;;;;0.74;100.00;102501.91;5104615;28;20391;-79
2023/01/01 03:04:22;;;;;;;;;;;;;;;0.84;100.00;102502.13;5105870;28;20116;-79
2023/01/01 03:06:55;;;;;;;68.78;60.70;;;;;;;0.85;100.00;102496.00;5106587;28;20395;-79
2023/01/01 03:09:24;;;;;;;;;;;;;;;1.69;100.00;102492.16;5109562;28;20040;-80
2023/01/01 03:11:57;;;;;;;83.82;67.97;;;;;;;0.61;100.00;102490.53;5109094;28;19924;-79
2023/01/01 03:14:30;;;;;;;70.15;62.55;;;;;;;1.11;100.00;102494.28;5105965;28;20380;-80
2023/01/01 03:17:03;;;;;;;89.43;72.60;;;;;;;0.80;100.00;102493.66;5107136;28;20445;-79
2023/01/01 03:19:36;;;;;;;70.55;62.63;;;;;;;1.75;100.00;102499.59;5108520;28;20135;-79
2023/01/01 03:22:07;;;;;;;67.88;60.75;;;;;;;1.48;100.00;102497.91;5102827;28;20044;-80
2023/01/01 03:24:36;;;;;;;66.55;59.45;;;;;;;1.78;100.00;102505.47;5110465;28;20039;-79
2023/01/01 03:27:09;;;;;;;69.38;61.95;;;;;;;1.43;100.00;102497.38;5100448;28;20116;-80
2023/01/01 03:29:40;;;;;;;80.13;68.93;;;;;;;1.37;100.00;102495.19;5112169;28;20140;-79
2023/01/01 03:32:13;;;;;;;76.82;68.55;;;;;;;1.57;100.00;102499.06;5108032;28;20043;-81
2023/01/01 03:34:45;;;;;;;79.28;67.97;;;;;;;1.30;100.00;102502.59;5102870;28;20078;-80
2023/01/01 03:37:16;;;;;;;78.82;63.70;;;;;;;1.26;100.00;102516.81;5108460;28;20112;-80
2023/01/01 03:39:49;;;;;;;70.50;62.75;;;;;;;1.14;100.00;102501.91;5115054;27;20051;-80
2023/01/01 03:42:23;;;;;;;71.78;64.30;;;;;;;0.88;100.00;102519.34;5104184;28;20040;-82
2023/01/01 03:44:56;;;;;;;70.97;63.50;;;;;;;0.59;100.00;102510.72;5103649;28;20052;-80
2023/01/01 03:47:25;;;;;;;68.22;61.10;;;;;;;0.43;100.00;102511.69;5111601;28;20086;-81
2023/01/01 03:49:51;;;;;;;67.85;60.10;;;;;;;0.40;100.00;102518.88;5104474;28;20052;-80
2023/01/01 03:52:41;;;;;;;65.50;58.85;;;;;;;0.38;100.00;102518.13;5102778;28;20052;-79
2023/01/01 03:55:15;;;;;;;71.82;64.18;;;;;;;0.30;100.00;102512.53;5099853;28;20058;-78
2023/01/01 03:57:49;;;;;;;67.32;60.15;;;;;;;0.25;100.00;102515.44;5100355;28;20052;-79
2023/01/01 04:00:18;;;;;;;64.32;57.60;;;;;;;0.22;100.00;102506.00;5105708;28;20048;-81
2023/01/01 04:02:52;;;;;;;67.45;60.15;;;;;;;0.91;100.00;102513.91;5102614;28;20048;-79
2023/01/01 04:05:20;;;;;;;67.72;60.75;;;;;;;0.77;100.00;102493.84;5098249;28;20043;-80
2023/01/01 04:07:49;;;;;;;66.95;60.60;;;;;;;1.32;100.00;102513.78;5113563;28;20101;-79
2023/01/01 04:10:17;;;;;;;63.35;56.38;;;;;;;1.19;100.00;102509.50;5107291;28;20133;-79
2023/01/01 04:12:46;;;;;;;63.03;56.28;;;;;;;1.54;100.00;102513.22;5104785;28;20060;-79
2023/01/01 04:15:13;;;;;;;71.50;64.70;;;;;;;1.40;100.00;102512.47;5100351;28;20052;-79
2023/01/01 04:17:40;;;;;;;80.53;72.03;;;;;;;1.31;100.00;102522.59;5106744;28;20537;-79
2023/01/01 04:20:09;;;;;;;72.32;64.93;;;;;;;1.48;100.00;102529.31;5105662;28;20533;-78
2023/01/01 04:22:37;;;;;;;66.93;59.78;;;;;;;1.17;100.00;102532.28;5100862;28;20047;-79
2023/01/01 04:25:05;;;;;;;67.68;60.65;;;;;;;0.82;100.00;102517.94;5109309;28;20048;-79
2023/01/01 04:27:32;;;;;;;68.15;61.20;;;;;;;0.68;100.00;102524.03;5101953;28;20493;-80
2023/01/01 04:29:59;;;;;;;65.95;58.72;;;;;;;0.85;100.00;102525.59;5108268;28;20477;-79
2023/01/01 04:32:25;;;;;;;66.22;59.60;;;;;;;1.01;100.00;102530.69;5107127;28;20051;-79
2023/01/01 04:34:52;;;;;;;64.68;57.90;;;;;;;0.93;100.00;102519.84;5097897;28;20128;-79
2023/01/01 04:37:20;;;;;;;65.20;58.25;;;;;;;0.97;100.00;102523.97;5107861;28;20043;-79
2023/01/01 04:39:47;;;;;;;67.55;60.33;;;;;;;0.95;100.00;102528.47;5108712;28;20561;-79
2023/01/01 04:42:14;;;;;;;71.80;64.30;;;;;;;1.18;100.00;102541.81;5104242;28;20457;-80
2023/01/01 04:44:40;;;;;;;70.05;62.72;;;;;;;1.55;100.00;102535.00;5103667;28;20047;-80
2023/01/01 04:47:07;;;;;;;68.82;61.35;;;;;;;1.30;100.00;102527.91;5106509;28;20139;-79
2023/01/01 04:49:34;;;;;;;69.70;62.47;;;;;;;1.28;100.00;102541.13;5104052;28;20056;-80
2023/01/01 04:52:01;;;;;;;67.53;60.53;;;;;;;1.79;100.00;102535.97;5104382;28;20133;-80
2023/01/01 04:54:29;;;;;;;67.63;60.65;;;;;;;1.18;100.00;102537.44;5094380;28;20044;-82
2023/01/01 04:56:56;;;;;;;69.53;61.85;;;;;;;0.86;100.00;102527.25;5107431;28;20048;-78
2023/01/01 04:59:22;;;;;;;63.67;56.80;;;;;;;1.31;100.00;102525.22;5106781;28;20438;-79
2023/01/01 05:01:49;;;;;;;71.07;63.88;;;;;;;1.14;100.00;102534.16;5107829;28;20044;-80
2023/01/01 05:04:17;;;;;;;73.30;65.63;;;;;;;1.19;100.00;102523.41;5104742;28;20404;-79
2023/01/01 05:06:44;;;;;;;68.70;61.58;;;;;;;1.23;100.00;102534.50;5104065;28;20104;-79
2023/01/01 05:09:12;;;;;;;64.15;57.42;;;;;;;1.55;100.00;102545.50;5110985;28;20055;-80
2023/01/01 05:11:40;;;;;;;65.05;58.28;;;;;;;1.65;100.00;102537.84;5103155;28;20549;-81
2023/01/01 05:14:07;;;;;;;63.85;57.35;;;;;;;1.86;100.00;102535.56;5110837;28;20100;-79
2023/01/01 05:16:36;;;;;;;73.38;62.35;;;;;;;1.66;100.00;102536.91;5107371;28;20104;-80
2023/01/01 05:19:04;;;;;;;72.35;61.00;;;;;;;1.47;100.00;102542.53;5109905;28;20055;-80
2023/01/01 05:21:32;;;;;;;74.07;60.55;;;;;;;1.44;100.00;102538.34;5104287;28;20123;-79
2023/01/01 05:24:01;;;;;;;68.20;60.55;;;;;;;1.50;100.00;102537.09;5112440;28;20544;-80
2023/01/01 05:26:30;;;;;;;66.18;59.05;;;;;;;1.22;100.00;102533.69;5104364;28;20109;-81
2023/01/01 05:28:59;;;;;;;67.68;59.05;;;;;;;1.37;100.00;102539.69;5107582;28;20113;-80
2023/01/01 05:31:28;;;;;;;63.10;56.90;;;;;;;1.18;100.00;102541.81;5109204;28;20097;-78
2023/01/01 05:33:56;;;;;;;73.85;65.93;;;;;;;1.29;100.00;102537.56;5107125;28;20051;-79
2023/01/01 05:36:25;;;;;;;74.25;66.38;;;;;;;1.37;100.00;102544.94;5105239;28;20445;-80
2023/01/01 05:38:52;;;;;;;72.38;64.65;;;;;;;1.67;100.00;102546.44;5106102;28;20116;-82
2023/01/01 05:41:21;;;;;;;63.15;56.80;;;;;;;1.80;100.00;102549.91;5105051;28;20056;-81
2023/01/01 05:43:48;;;;;;;64.55;58.03;;;;;;;1.66;100.00;102552.63;5099420;28;20113;-82
2023/01/01 05:46:21;;;;;;;68.72;58.80;;;;;;;1.49;100.00;102559.00;5105434;28;20491;-82
2023/01/01 05:48:48;;;;;;;62.83;56.70;;;;;;;1.45;100.00;102545.25;5105245;28;20044;-79
2023/01/01 05:51:16;;;;;;;65.28;58.90;;;;;;;1.66;100.00;102552.63;5109723;28;20035;-79
2023/01/01 05:53:44;;;;;;;62.92;56.78;;;;;;;2.05;100.00;102557.75;5099677;28;20055;-80
2023/01/01 05:56:11;;;;;;;68.68;61.65;;;;;;;1.63;100.00;102553.66;5107822;28;20126;-80
2023/01/01 05:58:38;;;;;;;63.38;56.83;;;;;;;1.57;100.00;102559.31;5105339;28;20476;-80
2023/01/01 06:01:07;;;;;;;59.88;53.95;;;;;;;1.62;100.00;102561.63;5107795;28;20047;-79
2023/01/01 06:03:35;;;;;;;63.78;57.17;;;;;;;1.56;100.00;102557.63;5103344;28;20055;-79
2023/01/01 06:06:06;;;;;;;59.47;53.17;;;;;;;1.59;100.00;102565.28;5103877;28;20055;-80
2023/01/01 06:08:33;;;;;;;58.70;52.63;;;;;;;1.63;100.00;102564.13;5101629;28;20060;-79
2023/01/01 06:11:01;;;;;;;59.08;52.70;;;;;;;1.74;100.00;102561.63;5112368;28;20059;-79
2023/01/01 06:13:27;;;;;;;64.82;54.30;;;;;;;1.81;100.00;102565.50;5106442;28;20048;-80
2023/01/01 06:15:55;;;;;;;59.22;53.28;;;;;;;2.03;100.00;102570.16;5103971;28;20109;-82
2023/01/01 06:18:22;;;;;;;58.10;52.38;;;;;;;2.36;100.00;102575.78;5111247;28;20055;-79
2023/01/01 06:20:50;;;;;;;58.55;52.35;;;;;;;2.70;100.00;102575.09;5102017;28;20472;-79
2023/01/01 06:23:17;;;;;;;62.22;56.05;;;;;;;2.88;100.00;102569.50;5114919;28;20465;-81
2023/01/01 06:25:44;;;;;;;60.70;54.70;;;;;;;3.27;100.00;102581.53;5110122;28;20504;-79
2023/01/01 06:28:11;;;;;;;54.67;49.83;;;;;;;3.77;100.00;102578.69;5110079;28;20051;-80
2023/01/01 06:30:38;;;;;;;55.65;50.53;;;;;;;4.20;100.00;102578.03;5112916;28;20480;-79
2023/01/01 06:33:05;;;;;;;56.15;51.20;;;;;;;4.16;100.00;102584.50;5107975;28;20442;-79
2023/01/01 06:35:31;;;;;;;55.83;50.70;;;;;;;4.12;100.00;102582.09;5105581;28;20773;-81
2023/01/01 06:38:00;;;;;;;56.10;51.10;;;;;;;4.39;100.00;102585.34;5104834;28;20044;-80
2023/01/01 06:40:27;;;;;;;56.47;51.20;;;;;;;4.76;100.00;102576.22;5107933;28;20132;-80
2023/01/01 06:42:53;;;;;;;55.97;50.55;;;;;;;5.01;100.00;102593.50;5108111;28;20137;-79
2023/01/01 06:45:20;;;;;;;57.28;52.00;;;;;;;4.92;100.00;102594.25;5108088;28;20051;-80
2023/01/01 06:47:47;;;;;;;57.53;52.42;;;;;;;5.40;100.00;102598.31;5108428;27;20052;-79
2023/01/01 06:50:14;;;;;;;57.50;52.38;;;;;;;5.49;100.00;102593.13;5110458;28;20389;-79
2023/01/01 06:52:40;;;;;;;63.83;57.67;;;;;;;5.38;100.00;102587.06;5112400;28;20047;-80
2023/01/01 06:55:09;;;;;;;66.68;60.05;;;;;;;5.92;100.00;102601.88;5109936;28;20196;-80
2023/01/01 06:57:36;;;;;;;69.95;61.70;;;;;;;5.72;100.00;102598.28;5105915;28;20117;-79
2023/01/01 07:00:03;;;;;;;70.95;63.72;;;;;;;6.39;100.00;102594.41;5111380;28;20092;-80
2023/01/01 07:02:29;;;;;;;60.60;55.05;;;;;;;6.83;100.00;102595.78;5103075;28;20496;-79
2023/01/01 07:04:56;;;;;;;65.72;59.53;;;;;;;6.95;100.00;102599.13;5110320;28;20052;-79
2023/01/01 07:07:23;;;;;;;62.95;57.22;;;;;;;7.21;100.00;102603.91;5111309;28;20047;-79
2023/01/01 07:09:50;;;;;;;63.85;57.58;;;;;;;7.28;100.00;102597.09;5110518;28;20052;-79
2023/01/01 07:12:18;;;;;;;67.43;60.90;;;;;;;7.05;100.00;102593.88;5101906;28;20070;-81
2023/01/01 07:14:44;;;;;;;64.88;58.65;;;;;;;8.59;100.00;102591.13;5100816;28;20043;-80
2023/01/01 07:17:11;;;;;;;63.70;57.60;;;;;;;8.71;100.00;102595.25;5106096;28;20043;-82
2023/01/01 07:19:38;;;;;;;66.72;60.65;;;;;;;8.62;100.00;102590.84;5108716;28;20051;-81
2023/01/01 07:22:04;;;;;;;64.75;59.10;;;;;;;9.22;100.00;102583.19;5109689;28;20454;-80
2023/01/01 07:24:31;;;;;;;67.25;61.60;;;;;;;9.75;100.00;102586.81;5096960;28;20051;-81
2023/01/01 07:26:58;;;;;;;68.05;61.75;;;;;;;9.78;100.00;102582.00;5103501;28;20048;-80
2023/01/01 07:29:26;;;;;;;66.35;60.42;;;;;;;10.18;100.00;102587.75;5110407;28;20043;-79
2023/01/01 07:31:53;;;;;;;60.00;55.08;;;;;;;10.70;100.00;102590.31;5113806;27;20051;-80
2023/01/01 07:34:21;;;;;;;58.35;53.65;;;;;;;10.60;100.00;102581.66;5094646;28;20517;-80
2023/01/01 07:36:48;;;;;;;60.10;55.35;;;;;;;11.02;100.00;102570.16;5108368;28;20052;-81
2023/01/01 07:39:14;;;;;;;64.60;59.00;;;;;;;11.36;100.00;102581.47;5111978;28;20397;-80
2023/01/01 07:41:41;;;;;;;66.47;60.17;;;;;;;11.15;100.00;102573.97;5108079;28;20120;-79
2023/01/01 07:44:08;;;;;;;124.53;89.65;;;;;;;11.47;100.00;102567.03;5103920;28;20036;-79
2023/01/01 07:46:37;;;;;;;84.07;74.93;;;;;;;12.39;100.00;102575.50;5108349;28;20457;-80
2023/01/01 07:49:04;;;;;;;62.28;56.95;;;;;;;11.55;100.00;102569.66;5111161;28;20047;-79
2023/01/01 07:51:31;;;;;;;63.13;57.80;;;;;;;12.07;100.00;102585.28;5104593;28;20047;-80
2023/01/01 07:53:57;;;;;;;58.17;53.33;;;;;;;12.38;100.00;102574.69;5101389;28;20108;-82
2023/01/01 07:56:24;;;;;;;55.38;51.08;;;;;;;11.94;100.00;102589.44;5102715;28;20084;-79
2023/01/01 07:58:51;;;;;;;57.65;53.13;;;;;;;13.18;100.00;102584.22;5106532;28;20043;-79
2023/01/01 08:01:19;;;;;;;53.40;49.38;;;;;;;12.83;100.00;102590.97;5104639;28;20101;-80
2023/01/01 08:03:50;;;;;;;54.35;50.05;;;;;;;13.82;100.00;102586.56;5105226;28;20480;-79
2023/01/01 08:06:17;;;;;;;53.97;49.73;;;;;;;14.48;100.00;102591.19;5102934;28;20107;-79
2023/01/01 08:08:44;;;;;;;56.25;51.70;;;;;;;14.89;100.00;102592.34;5113284;28;20116;-82
2023/01/01 08:11:11;;;;;;;55.00;50.90;;;;;;;14.56;100.00;102597.28;5107361;28;20469;-79
2023/01/01 08:13:37;;;;;;;56.72;52.15;;;;;;;14.95;100.00;102598.78;5103967;28;20048;-80
2023/01/01 08:16:05;;;;;;;58.90;54.03;;;;;;;15.00;100.00;102596.34;5103919;28;20203;-79
2023/01/01 08:18:32;;;;;;;55.20;51.20;;;;;;;15.34;100.00;102597.53;5108248;28;20051;-80
2023/01/01 08:21:00;;;;;;;55.10;50.95;;;;;;;15.51;100.00;102604.25;5107446;28;20464;-81
2023/01/01 08:23:27;;;;;;;52.67;48.88;;;;;;;15.64;100.00;102598.16;5114719;28;20450;-82
2023/01/01 08:25:54;;;;;;;55.88;51.58;;;;;;;14.77;100.00;102603.72;5107607;28;20056;-81
2023/01/01 08:28:20;;;;;;;54.15;50.28;;;;;;;15.70;100.00;102602.81;5106880;28;20116;-81
2023/01/01 08:30:47;;;;;;;55.78;51.58;;;;;;;15.45;100.00;102593.50;5111570;28;20051;-82
2023/01/01 08:33:14;;;;;;;53.80;49.55;;;;;;;16.17;100.00;102597.75;5108408;28;20047;-81
2023/01/01 08:35:42;;;;;;;54.47;50.38;;;;;;;16.39;100.00;102598.47;5110864;28;20047;-80
2023/01/01 08:38:12;;;;;;;54.83;50.63;;;;;;;15.91;100.00;102590.38;5112880;28;20112;-79
2023/01/01 08:40:39;;;;;;;56.33;52.13;;;;;;;16.12;100.00;102592.97;5102795;28;20039;-80
2023/01/01 08:43:06;;;;;;;53.55;49.72;;;;;;;14.77;100.00;102591.16;5114246;27;20113;-79
2023/01/01 08:45:33;;;;;;;50.47;47.17;;;;;;;15.09;100.00;102599.72;5112976;27;20048;-80
2023/01/01 08:48:00;;;;;;;53.90;50.08;;;;;;;15.97;100.00;102589.59;5107538;28;20462;-79
2023/01/01 08:50:27;;;;;;;54.08;50.05;;;;;;;15.44;100.00;102584.63;5107071;28;20486;-81
2023/01/01 08:52:53;;;;;;;52.65;49.17;;;;;;;15.10;100.00;102583.50;5102805;28;20121;-80
2023/01/01 08:55:21;;;;;;;54.00;49.85;;;;;;;15.58;100.00;102582.88;5098287;28;20059;-81
2023/01/01 08:57:48;;;;;;;53.25;49.72;;;;;;;15.37;100.00;102581.06;5101674;28;20064;-80
2023/01/01 09:00:16;;;;;;;53.40;49.88;;;;;;;15.62;100.00;102581.47;5110157;28;20108;-80
2023/01/01 09:02:42;;;;;;;52.10;48.50;;;;;;;16.31;100.00;102571.81;5101664;28;20052;-80
2023/01/01 09:05:10;;;;;;;52.55;48.88;;;;;;;14.32;100.00;102577.00;5102686;28;20055;-80
2023/01/01 09:07:37;;;;;;;51.90;48.45;;;;;;;15.45;100.00;102567.53;5112039;28;20055;-81
2023/01/01 09:10:04;;;;;;;51.90;48.25;;;;;;;15.72;100.00;102568.59;5109588;28;20407;-81
2023/01/01 09:12:32;;;;;;;53.92;50.22;;;;;;;17.11;100.00;102567.59;5100154;28;20055;-81
2023/01/01 09:14:59;;;;;;;51.75;48.05;;;;;;;15.55;100.00;102569.88;5111639;28;20044;-81
2023/01/01 09:17:26;;;;;;;51.17;47.75;;;;;;;16.72;100.00;102569.94;5106952;28;20104;-81
2023/01/01 09:19:52;;;;;;;52.10;48.53;;;;;;;17.05;100.00;102574.59;5108108;28;20043;-80
2023/01/01 09:22:19;;;;;;;53.15;49.45;;;;;;;16.02;100.00;102560.34;5113651;28;20437;-79
2023/01/01 09:24:46;;;;;;;52.53;48.83;;;;;;;15.65;100.00;102561.53;5114440;28;20113;-80
2023/01/01 09:27:13;;;;;;;52.88;49.13;;;;;;;15.61;100.00;102568.28;5105282;28;20105;-81
2023/01/01 09:29:41;;;;;;;54.17;50.35;;;;;;;15.31;100.00;102550.53;5115132;27;20524;-80
2023/01/01 09:32:07;;;;;;;53.47;49.67;;;;;;;16.66;100.00;102556.50;5109065;28;20040;-80
2023/01/01 09:34:34;;;;;;;56.17;52.17;;;;;;;16.67;100.00;102550.09;5101349;28;20052;-80
2023/01/01 09:37:01;;;;;;;53.58;49.55;;;;;;;18.01;90.09;102535.72;5113002;28;20051;-80
2023/01/01 09:39:29;;;;;;;52.88;49.15;;;;;;;16.16;96.79;102543.31;5112538;28;20109;-80
2023/01/01 09:42:18;;;;;;;53.72;50.05;;;;;;;16.26;100.00;102546.44;5114190;28;20047;-81
2023/01/01 09:45:17;;;;;;;51.58;48.08;;;;;;;17.94;95.95;102541.09;5106527;28;20089;-80
2023/01/01 09:47:48;;;;;;;53.13;49.42;;;;;;;15.79;100.00;102547.22;5107957;28;20051;-81
2023/01/01 09:50:19;;;;;;;52.53;48.83;;;;;;;16.16;100.00;102548.69;5106715;28;20047;-81
2023/01/01 09:52:51;;;;;;;53.20;49.50;;;;;;;15.32;100.00;102546.84;5099488;28;20052;-80
2023/01/01 09:55:21;;;;;;;;;;;;;;;14.52;100.00;102549.72;5108608;28;20052;-79
2023/01/01 09:57:48;;;;;;;53.90;50.22;;;;;;;13.65;100.00;102547.69;5100188;28;19973;-79
2023/01/01 10:00:18;;;;;;;54.03;50.22;;;;;;;15.67;100.00;102544.25;5108136;28;20043;-80
2023/01/01 10:03:03;;;;;;;52.00;48.25;;;;;;;13.97;100.00;102552.66;5118588;27;20446;-80
2023/01/01 10:05:40;;;;;;;52.67;49.08;;;;;;;12.25;100.00;102546.91;5113785;27;20119;-79
2023/01/01 10:08:15;;;;;;;51.95;48.35;;;;;;;13.92;100.00;102544.41;5117142;27;20043;-80
2023/01/01 10:10:51;;;;;;;51.83;48.22;;;;;;;13.63;100.00;102542.50;5105073;28;20063;-80
2023/01/01 10:13:23;;;;;;;51.88;48.28;;;;;;;13.76;100.00;102541.88;5111821;28;20065;-79
2023/01/01 10:15:57;;;;;;;51.88;48.38;;;;;;;14.37;100.00;102545.22;5119399;27;20043;-79
2023/01/01 10:18:28;;;;;;;53.38;49.75;;;;;;;14.66;100.00;102551.53;5123286;27;20441;-81
2023/01/01 10:21:01;;;;;;;52.70;48.90;;;;;;;14.11;100.00;102537.66;5120070;27;20058;-80
2023/01/01 10:23:33;;;;;;;53.58;49.88;;;;;;;13.35;100.00;102534.28;5114077;27;20124;-81
2023/01/01 10:26:06;;;;;;;51.30;47.72;;;;;;;14.40;100.00;102538.63;5117282;27;20088;-80
2023/01/01 10:28:35;;;;;;;;;;;;;;;15.67;100.00;102533.53;5123791;27;20055;-81
2023/01/01 10:31:15;;;;;;;52.83;49.28;;;;;;;17.31;100.00;102533.53;5122000;27;20322;-84
2023/01/01 10:33:42;;;;;;;52.38;48.80;;;;;;;15.22;100.00;102535.66;5122470;27;20131;-80
2023/01/01 10:36:12;;;;;;;53.88;50.10;;;;;;;16.79;100.00;102529.72;5109306;28;20453;-81
2023/01/01 10:38:40;;;;;;;53.67;49.95;;;;;;;16.65;100.00;102522.66;5110475;27;20421;-82
2023/01/01 10:41:08;;;;;;;53.65;49.95;;;;;;;20.42;77.65;102518.25;5107362;28;20052;-79
2023/01/01 10:43:35;;;;;;;53.15;49.60;;;;;;;19.57;77.06;102502.00;5100443;28;20051;-80
2023/01/01 10:46:04;;;;;;;52.88;49.45;;;;;;;17.38;74.67;102512.03;5112592;28;20036;-82
2023/01/01 10:48:32;;;;;;;53.97;50.28;;;;;;;17.56;88.90;102517.59;5121367;27;20461;-80
2023/01/01 10:51:00;;;;;;;53.50;49.90;;;;;;;18.40;82.34;102504.34;5106757;28;20111;-80
2023/01/01 10:53:30;;;;;;;54.22;50.63;;;;;;;18.24;82.62;102502.94;5115840;27;20058;-79
2023/01/01 10:56:03;;;;;;;54.05;50.45;;;;;;;17.94;92.66;102503.47;5111052;27;20058;-81
2023/01/01 10:58:39;;;;;;;55.80;51.92;;;;;;;20.72;66.94;102496.69;5110728;28;20521;-81
2023/01/01 11:01:09;;;;;;;56.78;52.97;;;;;;;18.43;62.35;102493.16;5100284;28;20476;-80
2023/01/01 11:03:36;;;;;;;56.58;52.85;;;;;;;18.94;82.59;102495.75;5111117;28;20062;-82
2023/01/01 11:06:06;;;;;;;55.00;51.42;;;;;;;19.16;84.69;102492.66;5108224;28;20044;-81
2023/01/01 11:08:37;;;;;;;55.83;52.30;;;;;;;16.92;65.59;102497.56;5109954;28;20070;-80
2023/01/01 11:11:05;;;;;;;57.65;53.95;;;;;;;20.72;63.23;102503.97;5111302;28;20117;-81
2023/01/01 11:13:33;;;;;;;57.17;53.40;;;;;;;18.86;66.63;102504.06;5109638;28;20040;-83
2023/01/01 11:16:00;;;;;;;58.10;54.20;;;;;;;18.77;68.57;102503.50;5107737;28;20044;-82
2023/01/01 11:18:34;;;;;;;58.45;54.20;;;;;;;18.64;65.45;102494.66;5103406;28;20472;-81
2023/01/01 11:21:04;;;;;;;57.05;53.28;;;;;;;19.41;66.04;102485.38;5107988;28;20044;-81
2023/01/01 11:23:33;;;;;;;58.92;54.97;;;;;;;18.67;69.66;102492.38;5104101;28;20124;-81
2023/01/01 11:26:03;;;;;;;57.30;53.50;;;;;;;18.16;69.82;102484.38;5097920;28;20083;-80
2023/01/01 11:28:33;;;;;;;56.40;52.72;;;;;;;20.08;58.72;102479.28;5106352;28;20056;-81
2023/01/01 11:31:05;;;;;;;58.00;53.90;;;;;;;17.95;70.01;102480.94;5104533;28;20051;-81